Time;durP1;ratioP1;P1;durP2;ratioP2;P2;SDS_P1;SDS_P2;PMS_P1;PMS_P2;Temp;Humidity;BMP_temperature;BMP_pressure;BME280_temperature;BME280_humidity;BME280_pressure;Samples;Min_cycle;Max_cycle;Signal;HPM_P1;HPM_P2
2023/12/26 00:00:06;;;;;;;5.37;2.33;;;;;;;11.80;89.69;101393.75;2080604;28;20273;-74
2023/12/26 00:01:06;;;;;;;7.17;2.67;;;;;;;12.10;89.54;101443.66;2080028;28;20252;-74
2023/12/26 00:02:07;;;;;;;7.27;2.40;;;;;;;11.72;89.17;101373.66;2079405;28;20436;-74
2023/12/26 00:03:07;;;;;;;5.33;2.10;;;;;;;12.09;89.20;101439.31;2079407;28;20242;-74
2023/12/26 00:04:08;;;;;;;5.73;2.40;;;;;;;12.09;89.05;101425.41;2080640;28;20255;-74
2023/12/26 00:05:09;;;;;;;5.27;1.87;;;;;;;12.14;88.72;101433.25;2081012;28;20201;-74
2023/12/26 00:06:09;;;;;;;4.67;2.20;;;;;;;12.18;88.47;101440.31;2080481;28;20219;-73
2023/12/26 00:07:10;;;;;;;5.43;2.23;;;;;;;12.19;88.37;101439.09;2079902;28;20240;-74
2023/12/26 00:08:10;;;;;;;4.43;2.27;;;;;;;11.60;88.17;101357.59;2079137;28;20207;-74
2023/12/26 00:09:15;;;;;;;7.30;2.33;;;;;;;12.07;88.59;101436.94;2079882;28;20683;-74
2023/12/26 00:10:16;;;;;;;3.37;1.77;;;;;;;11.94;88.86;101424.06;2080763;28;20250;-74
2023/12/26 00:11:16;;;;;;;5.77;2.30;;;;;;;12.07;89.00;101459.16;2080574;28;20445;-73
2023/12/26 00:12:17;;;;;;;5.40;2.30;;;;;;;12.10;88.87;101440.88;2080330;28;20194;-74
2023/12/26 00:13:17;;;;;;;6.23;2.00;;;;;;;12.08;89.16;101444.06;2080362;28;20196;-74
2023/12/26 00:14:18;;;;;;;4.93;2.10;;;;;;;11.90;89.26;101423.34;2080985;28;20189;-74
2023/12/26 00:15:18;;;;;;;5.70;2.00;;;;;;;12.05;89.37;101444.91;2080033;28;20244;-74
2023/12/26 00:16:19;;;;;;;4.77;2.20;;;;;;;11.94;89.66;101441.50;2080363;28;20689;-74
2023/12/26 00:17:19;;;;;;;5.83;2.23;;;;;;;12.00;89.87;101441.81;2079935;28;20198;-74
2023/12/26 00:18:20;;;;;;;4.27;2.03;;;;;;;11.94;89.84;101441.50;2079924;28;20587;-73
2023/12/26 00:19:20;;;;;;;5.00;2.27;;;;;;;11.90;90.55;101443.59;2080666;28;20197;-74
2023/12/26 00:20:21;;;;;;;4.00;2.10;;;;;;;11.76;90.65;101429.91;2080061;28;20276;-74
2023/12/26 00:21:22;;;;;;;6.23;2.47;;;;;;;11.80;91.02;101422.31;2080540;28;20251;-74
2023/12/26 00:22:22;;;;;;;7.80;2.20;;;;;;;11.94;91.00;101438.75;2080556;28;20187;-74
2023/12/26 00:23:23;;;;;;;3.77;2.20;;;;;;;11.81;90.82;101421.13;2080620;28;20286;-74
2023/12/26 00:24:23;;;;;;;4.97;2.20;;;;;;;11.89;91.43;101439.22;2080521;28;20316;-74
2023/12/26 00:25:24;;;;;;;7.23;2.80;;;;;;;11.88;91.01;101451.53;2080115;28;20193;-74
2023/12/26 00:26:25;;;;;;;7.10;2.03;;;;;;;11.76;91.37;101423.56;2079928;28;20547;-74
2023/12/26 00:27:25;;;;;;;5.53;2.37;;;;;;;11.75;92.07;101441.44;2078827;28;20200;-74
2023/12/26 00:28:26;;;;;;;4.43;1.97;;;;;;;11.62;92.22;101421.00;2079993;28;20690;-74
2023/12/26 00:29:26;;;;;;;7.03;2.73;;;;;;;11.63;92.21;101428.16;2078704;28;20248;-74
2023/12/26 00:30:27;;;;;;;4.87;2.50;;;;;;;11.18;92.61;101357.44;2079847;28;20746;-74
2023/12/26 00:31:27;;;;;;;8.93;2.40;;;;;;;11.72;92.56;101440.28;2080700;28;20459;-74
2023/12/26 00:32:28;;;;;;;5.03;1.93;;;;;;;11.73;93.07;101441.84;2079769;28;20484;-74
2023/12/26 00:33:28;;;;;;;6.90;2.53;;;;;;;11.76;93.19;101449.34;2080254;28;20248;-74
2023/12/26 00:34:29;;;;;;;9.63;2.23;;;;;;;11.74;93.05;101448.22;2078924;28;20204;-74
2023/12/26 00:35:30;;;;;;;5.43;2.30;;;;;;;11.75;93.19;101447.78;2080011;28;20197;-75
2023/12/26 00:36:30;;;;;;;3.67;1.77;;;;;;;11.08;93.16;101359.16;2080343;28;20208;-74
2023/12/26 00:37:34;;;;;;;4.37;1.70;;;;;;;11.36;93.11;101396.78;2079455;28;20191;-74
2023/12/26 00:38:34;;;;;;;4.03;1.90;;;;;;;11.87;92.72;101449.97;2080163;28;20189;-73
2023/12/26 00:39:35;;;;;;;5.53;2.33;;;;;;;11.82;92.39;101449.66;2080717;28;20961;-74
2023/12/26 00:40:39;;;;;;;5.47;2.00;;;;;;;11.40;92.51;101372.56;2080104;28;20680;-74
2023/12/26 00:41:40;;;;;;;5.03;2.10;;;;;;;11.83;92.19;101454.78;2079900;28;20195;-73
2023/12/26 00:42:40;;;;;;;5.50;2.20;;;;;;;11.89;91.96;101450.31;2079876;28;20996;-73
2023/12/26 00:43:41;;;;;;;6.10;1.73;;;;;;;11.90;91.91;101456.69;2080074;28;20185;-74
2023/12/26 00:44:41;;;;;;;3.40;1.50;;;;;;;11.45;92.02;101374.84;2079275;28;20772;-74
2023/12/26 00:45:42;;;;;;;6.60;2.67;;;;;;;11.67;91.73;101417.75;2079811;28;20242;-73
2023/12/26 00:46:46;;;;;;;3.13;1.63;;;;;;;11.40;92.04;101380.88;2079487;28;20191;-73
2023/12/26 00:47:46;;;;;;;3.50;1.47;;;;;;;10.73;91.99;101284.00;2078525;28;20706;-75
2023/12/26 00:48:47;;;;;;;3.40;1.40;;;;;;;11.85;92.28;101457.94;2079506;28;20517;-73
2023/12/26 00:49:47;;;;;;;4.03;1.53;;;;;;;11.84;92.10;101441.69;2079705;28;20204;-73
2023/12/26 00:50:48;;;;;;;6.93;1.77;;;;;;;11.43;91.92;101391.91;2079195;28;20212;-73
2023/12/26 00:51:48;;;;;;;5.83;1.90;;;;;;;11.62;91.99;101419.03;2079683;28;20319;-73
2023/12/26 00:52:49;;;;;;;4.00;1.83;;;;;;;11.88;91.99;101454.31;2080056;28;20212;-73
2023/12/26 00:53:49;;;;;;;4.80;1.60;;;;;;;11.89;92.19;101458.66;2080110;28;20255;-74
2023/12/26 00:54:50;;;;;;;3.70;1.47;;;;;;;11.72;91.87;101433.94;2079490;28;20199;-74
2023/12/26 00:55:50;;;;;;;4.90;1.70;;;;;;;10.85;92.09;101300.84;2080368;28;20189;-73
2023/12/26 00:56:51;;;;;;;4.73;1.60;;;;;;;11.94;91.87;101454.63;2079537;28;20211;-74
2023/12/26 00:57:52;;;;;;;4.07;1.53;;;;;;;12.02;91.45;101464.41;2079778;28;20634;-73
2023/12/26 00:58:52;;;;;;;4.63;1.80;;;;;;;12.00;91.04;101456.50;2078494;28;20758;-74
2023/12/26 00:59:53;;;;;;;4.03;1.70;;;;;;;11.99;90.95;101462.50;2080484;28;20253;-74
2023/12/26 01:00:53;;;;;;;3.83;1.80;;;;;;;12.03;91.02;101463.19;2078977;28;20522;-74
2023/12/26 01:01:54;;;;;;;3.43;1.37;;;;;;;12.02;91.55;101483.84;2079430;28;20631;-74
2023/12/26 01:02:54;;;;;;;2.60;1.37;;;;;;;12.01;91.01;101462.84;2079181;28;20189;-74
2023/12/26 01:03:55;;;;;;;2.77;1.57;;;;;;;11.98;91.64;101458.91;2079451;28;20636;-74
2023/12/26 01:04:56;;;;;;;4.67;1.60;;;;;;;11.97;91.26;101465.69;2080458;28;20286;-73
2023/12/26 01:05:56;;;;;;;4.13;1.57;;;;;;;11.91;91.55;101474.91;2080118;28;20203;-74
2023/12/26 01:06:57;;;;;;;5.67;1.80;;;;;;;11.96;91.54;101464.13;2079510;28;20470;-73
2023/12/26 01:07:58;;;;;;;3.20;1.63;;;;;;;11.95;91.63;101461.75;2079947;28;20228;-73
2023/12/26 01:08:58;;;;;;;5.30;1.80;;;;;;;10.38;91.55;101216.00;2079732;28;20208;-74
2023/12/26 01:10:02;;;;;;;6.53;1.87;;;;;;;11.98;91.56;101469.22;2080239;28;20514;-74
2023/12/26 01:11:03;;;;;;;4.07;1.77;;;;;;;12.04;91.47;101465.56;2079582;28;20236;-74
2023/12/26 01:12:04;;;;;;;4.20;2.00;;;;;;;12.02;91.28;101470.75;2079902;28;20435;-74
2023/12/26 01:13:05;;;;;;;3.07;1.50;;;;;;;11.73;91.26;101408.53;2079310;28;20189;-73
2023/12/26 01:14:06;;;;;;;4.30;1.57;;;;;;;12.04;91.13;101459.22;2080009;28;20189;-74
2023/12/26 01:15:07;;;;;;;4.50;1.67;;;;;;;11.91;90.71;101449.91;2079735;28;20454;-74
2023/12/26 01:16:07;;;;;;;3.60;1.40;;;;;;;11.84;90.97;101434.13;2079116;28;20204;-74
2023/12/26 01:17:09;;;;;;;7.03;1.73;;;;;;;12.07;90.65;101459.16;2079109;28;20789;-74
2023/12/26 01:18:09;;;;;;;5.40;1.80;;;;;;;12.03;90.41;101455.66;2079201;28;20254;-73
2023/12/26 01:19:10;;;;;;;5.90;2.03;;;;;;;12.08;90.12;101460.72;2079923;28;20430;-74
2023/12/26 01:20:10;;;;;;;2.70;1.60;;;;;;;11.56;90.26;101394.91;2079533;28;20216;-73
2023/12/26 01:21:11;;;;;;;4.50;2.10;;;;;;;11.92;90.18;101443.94;2080175;28;20191;-73
2023/12/26 01:22:12;;;;;;;8.87;1.93;;;;;;;12.10;90.11;101466.63;2079729;28;20249;-73
2023/12/26 01:23:12;;;;;;;6.97;1.90;;;;;;;11.92;90.22;101449.50;2079799;28;20189;-73
2023/12/26 01:24:13;;;;;;;3.00;1.67;;;;;;;12.09;90.29;101476.19;2079957;28;20212;-74
2023/12/26 01:25:14;;;;;;;6.73;1.93;;;;;;;12.12;90.01;101477.34;2079356;28;20272;-73
2023/12/26 01:26:15;;;;;;;5.67;2.50;;;;;;;11.47;89.65;101375.25;2079776;28;20181;-74
2023/12/26 01:27:15;;;;;;;4.07;1.73;;;;;;;12.20;89.00;101473.25;2078254;28;20284;-73
2023/12/26 01:28:16;;;;;;;4.20;1.70;;;;;;;12.22;88.38;101468.84;2079082;28;20934;-73
2023/12/26 01:29:16;;;;;;;4.27;1.93;;;;;;;11.93;87.59;101431.63;2079369;28;20212;-74
2023/12/26 01:30:17;;;;;;;4.00;1.73;;;;;;;11.97;87.49;101426.78;2079863;28;20272;-74
2023/12/26 01:31:17;;;;;;;4.10;1.37;;;;;;;12.17;87.33;101457.41;2087248;28;20183;-74
2023/12/26 01:32:19;;;;;;;3.50;1.47;;;;;;;12.32;87.43;101478.19;2087301;28;20195;-74
2023/12/26 01:33:20;;;;;;;2.80;1.50;;;;;;;12.23;87.60;101464.03;2079892;28;20192;-73
2023/12/26 01:34:20;;;;;;;5.63;1.83;;;;;;;12.03;87.62;101436.22;2079964;28;20501;-74
2023/12/26 01:35:21;;;;;;;3.47;1.80;;;;;;;12.35;87.81;101472.56;2079269;28;20257;-74
2023/12/26 01:36:21;;;;;;;2.77;1.30;;;;;;;12.26;87.40;101457.66;2080055;28;20208;-74
2023/12/26 01:37:22;;;;;;;2.13;1.40;;;;;;;11.99;87.34;101429.16;2078784;28;20214;-74
2023/12/26 01:38:22;;;;;;;5.37;1.50;;;;;;;12.34;87.39;101478.56;2079859;28;20196;-74
2023/12/26 01:39:23;;;;;;;3.00;1.33;;;;;;;12.26;87.13;101458.44;2080228;28;20238;-73
2023/12/26 01:40:23;;;;;;;6.93;1.80;;;;;;;11.77;86.82;101369.59;2079979;28;20195;-73
2023/12/26 01:41:25;;;;;;;4.93;1.70;;;;;;;12.43;86.71;101479.56;2080554;28;20273;-73
2023/12/26 01:42:25;;;;;;;3.80;1.67;;;;;;;11.95;86.53;101395.84;2078394;28;20214;-75
2023/12/26 01:43:26;;;;;;;2.83;1.40;;;;;;;12.42;86.37;101475.22;2079596;28;20451;-73
2023/12/26 01:44:27;;;;;;;3.60;1.90;;;;;;;12.44;86.28;101478.38;2080260;28;20191;-73
2023/12/26 01:45:27;;;;;;;5.67;1.90;;;;;;;12.45;86.00;101476.38;2079483;28;20187;-73
2023/12/26 01:46:28;;;;;;;4.73;1.80;;;;;;;11.93;85.93;101392.72;2080095;28;20187;-73
2023/12/26 01:47:28;;;;;;;5.90;1.47;;;;;;;12.51;85.26;101467.09;2080210;28;20259;-73
2023/12/26 01:48:29;;;;;;;3.70;1.43;;;;;;;11.67;85.21;101351.91;2079788;28;20691;-73
2023/12/26 01:49:30;;;;;;;1.93;1.30;;;;;;;12.40;85.53;101466.50;2080244;28;20202;-73
2023/12/26 01:50:33;;;;;;;6.00;1.60;;;;;;;12.42;86.05;101466.09;2080158;28;20435;-73
2023/12/26 01:51:34;;;;;;;6.77;1.77;;;;;;;12.30;86.14;101447.25;2079926;28;20270;-73
2023/12/26 01:52:38;;;;;;;7.20;1.70;;;;;;;11.71;86.22;101354.63;2079987;28;20477;-74
2023/12/26 01:53:39;;;;;;;5.17;1.83;;;;;;;12.30;86.57;101459.16;2080013;28;20952;-74
2023/12/26 01:54:40;;;;;;;4.40;1.40;;;;;;;12.28;86.96;101458.00;2078170;28;20819;-73
2023/12/26 01:55:41;;;;;;;4.33;1.60;;;;;;;12.23;87.07;101447.38;2079528;28;20199;-74
2023/12/26 01:56:41;;;;;;;3.43;1.47;;;;;;;11.93;87.36;101403.06;2080251;28;20428;-73
2023/12/26 01:57:42;;;;;;;3.73;1.50;;;;;;;11.33;87.20;101311.63;2079567;28;20279;-74
2023/12/26 01:58:48;;;;;;;2.20;1.33;;;;;;;12.27;87.03;101446.13;2080358;28;20219;-73
2023/12/26 01:59:49;;;;;;;2.47;1.20;;;;;;;12.25;87.27;101447.75;2079869;28;20205;-72
2023/12/26 02:00:50;;;;;;;3.50;1.40;;;;;;;12.22;87.46;101452.16;2079570;28;20455;-72
2023/12/26 02:01:51;;;;;;;2.77;1.30;;;;;;;12.08;88.04;101449.63;2079072;28;20188;-73
2023/12/26 02:02:53;;;;;;;3.20;1.30;;;;;;;12.08;88.26;101454.38;2079973;28;20439;-74
2023/12/26 02:03:54;;;;;;;5.77;1.10;;;;;;;12.08;88.56;101454.38;2079558;28;20239;-75
2023/12/26 02:04:56;;;;;;;4.53;1.30;;;;;;;11.32;88.87;101352.44;2080186;28;20435;-74
2023/12/26 02:05:59;;;;;;;3.27;1.60;;;;;;;11.51;89.39;101384.28;2079807;28;20486;-74
2023/12/26 02:07:00;;;;;;;2.77;1.33;;;;;;;11.88;90.00;101450.78;2078611;28;20442;-73
2023/12/26 02:08:01;;;;;;;3.53;1.50;;;;;;;11.83;90.93;101462.34;2080130;28;20462;-74
2023/12/26 02:09:03;;;;;;;3.87;1.20;;;;;;;11.25;91.20;101368.41;2079719;28;20203;-73
2023/12/26 02:10:06;;;;;;;4.70;1.40;;;;;;;11.83;91.57;101454.78;2079633;28;20446;-73
2023/12/26 02:11:06;;;;;;;3.07;1.40;;;;;;;11.83;91.78;101456.81;2079430;28;21024;-74
2023/12/26 02:12:08;;;;;;;3.33;1.20;;;;;;;11.57;92.32;101416.69;2079438;28;20435;-74
2023/12/26 02:13:08;;;;;;;4.50;1.50;;;;;;;11.64;92.55;101435.28;2079495;28;20279;-74
2023/12/26 02:14:12;;;;;;;5.33;1.80;;;;;;;11.70;92.47;101437.16;2080219;28;20431;-73
2023/12/26 02:15:14;;;;;;;2.33;1.20;;;;;;;11.85;92.52;101457.94;2079050;28;20254;-74
2023/12/26 02:16:21;;;;;;;5.37;1.40;;;;;;;11.88;92.17;101461.88;2079478;28;20445;-74
2023/12/26 02:17:24;;;;;;;4.93;1.60;;;;;;;11.69;92.14;101441.13;2079013;28;20443;-73
2023/12/26 02:18:25;;;;;;;3.47;1.50;;;;;;;11.83;91.82;101449.22;2079152;28;20447;-73
2023/12/26 02:19:25;;;;;;;3.87;1.63;;;;;;;11.88;91.83;101457.09;2079202;28;20477;-74
2023/12/26 02:20:26;;;;;;;2.57;1.10;;;;;;;11.85;91.79;101449.63;2079084;28;20442;-74
2023/12/26 02:21:26;;;;;;;3.93;1.77;;;;;;;11.82;92.16;101452.44;2079289;28;20185;-74
2023/12/26 02:22:27;;;;;;;4.40;1.43;;;;;;;11.85;92.66;101457.94;2079783;28;20475;-74
2023/12/26 02:23:29;;;;;;;5.03;1.80;;;;;;;11.43;92.63;101400.25;2080048;28;20572;-74
2023/12/26 02:24:30;;;;;;;3.50;1.57;;;;;;;10.79;93.66;101302.53;2079269;28;20192;-74
2023/12/26 02:25:30;;;;;;;3.60;1.43;;;;;;;11.22;93.39;101381.13;2078924;28;20538;-75
2023/12/26 02:26:35;;;;;;;2.10;1.17;;;;;;;11.41;93.95;101404.66;2079643;28;20195;-74
2023/12/26 02:27:37;;;;;;;2.23;1.30;;;;;;;11.10;94.14;101383.69;2078919;28;20262;-73
2023/12/26 02:28:39;;;;;;;4.70;1.60;;;;;;;11.05;94.21;101365.53;2079096;28;20470;-74
2023/12/26 02:29:40;;;;;;;7.80;1.60;;;;;;;11.67;94.18;101462.19;2078664;28;20442;-74
2023/12/26 02:30:41;;;;;;;2.60;1.10;;;;;;;11.68;94.14;101466.56;2078522;28;20429;-74
2023/12/26 02:31:43;;;;;;;4.37;1.23;;;;;;;11.66;93.53;101472.53;2080056;28;20434;-73
2023/12/26 02:32:46;;;;;;;6.50;1.50;;;;;;;11.63;93.15;101465.00;2080201;28;20177;-73
2023/12/26 02:33:47;;;;;;;5.23;1.37;;;;;;;11.74;92.62;101468.41;2079537;28;20489;-74
2023/12/26 02:34:50;;;;;;;2.17;1.00;;;;;;;11.73;92.17;101472.41;2079058;28;20530;-73
2023/12/26 02:35:50;;;;;;;2.83;1.30;;;;;;;10.80;92.13;101317.97;2079370;28;20974;-74
2023/12/26 02:36:51;;;;;;;2.87;1.40;;;;;;;11.74;92.37;101456.53;2078934;28;20809;-74
2023/12/26 02:37:51;;;;;;;4.00;1.40;;;;;;;11.85;92.10;101465.47;2079202;28;20187;-74
2023/12/26 02:38:53;;;;;;;3.40;1.20;;;;;;;11.85;92.00;101469.06;2079524;28;20189;-74
2023/12/26 02:39:53;;;;;;;3.97;1.47;;;;;;;11.61;91.91;101436.09;2079400;28;20286;-74
2023/12/26 02:40:54;;;;;;;1.87;1.13;;;;;;;11.45;92.75;101406.19;2079098;28;20428;-73
2023/12/26 02:41:54;;;;;;;5.80;1.70;;;;;;;11.71;93.63;101451.81;2079766;28;20214;-75
2023/12/26 02:42:55;;;;;;;4.60;1.50;;;;;;;10.74;94.54;101299.41;2079531;28;20194;-73
2023/12/26 02:43:55;;;;;;;5.67;1.67;;;;;;;11.88;95.26;101470.22;2079053;28;20220;-74
2023/12/26 02:44:57;;;;;;;2.57;1.30;;;;;;;11.88;94.88;101470.97;2078871;28;20259;-74
2023/12/26 02:45:57;;;;;;;3.67;1.83;;;;;;;11.81;94.59;101479.44;2080096;28;20762;-73
2023/12/26 02:46:58;;;;;;;5.03;1.50;;;;;;;11.80;94.83;101469.53;2078605;28;20597;-74
2023/12/26 02:47:58;;;;;;;3.33;1.30;;;;;;;11.32;95.48;101396.84;2079452;28;20216;-73
2023/12/26 02:48:59;;;;;;;4.37;1.43;;;;;;;11.76;95.80;101470.78;2079219;28;20216;-74
2023/12/26 02:49:59;;;;;;;4.73;1.30;;;;;;;11.06;95.83;101367.09;2080087;28;20193;-74
2023/12/26 02:51:00;;;;;;;3.17;1.40;;;;;;;11.15;96.65;101377.69;2079591;28;20197;-74
2023/12/26 02:52:02;;;;;;;5.40;1.60;;;;;;;11.75;97.00;101466.44;2079777;28;20260;-74
2023/12/26 02:53:03;;;;;;;3.27;1.17;;;;;;;11.73;96.94;101454.97;2079356;28;20207;-73
2023/12/26 02:54:03;;;;;;;2.07;1.20;;;;;;;11.77;97.06;101470.38;2078846;28;20460;-73
2023/12/26 02:55:04;;;;;;;4.13;1.63;;;;;;;11.71;97.22;101474.03;2087943;28;20576;-74
2023/12/26 02:56:05;;;;;;;3.13;1.40;;;;;;;11.66;97.98;101466.97;2087706;28;20186;-73
2023/12/26 02:57:05;;;;;;;4.90;1.37;;;;;;;11.37;98.81;101426.91;2080099;28;20180;-74
2023/12/26 02:58:06;;;;;;;2.33;1.40;;;;;;;11.60;99.30;101476.19;2079456;28;20184;-74
2023/12/26 02:59:06;;;;;;;3.17;1.40;;;;;;;11.53;100.00;101471.47;2080318;28;20189;-73
2023/12/26 03:00:07;;;;;;;3.07;1.50;;;;;;;10.96;100.00;101392.22;2080731;28;20689;-74
2023/12/26 03:01:08;;;;;;;7.50;2.53;;;;;;;11.46;100.00;101482.69;2081252;28;20228;-74
2023/12/26 03:02:08;;;;;;;2.53;1.53;;;;;;;10.89;100.00;101398.66;2080672;28;20952;-73
2023/12/26 03:03:09;;;;;;;4.17;2.10;;;;;;;11.23;100.00;101456.84;2080809;28;20868;-73
2023/12/26 03:04:09;;;;;;;5.00;1.83;;;;;;;11.32;100.00;101480.09;2081088;28;20196;-74
2023/12/26 03:05:10;;;;;;;3.67;1.73;;;;;;;10.76;100.00;101396.84;2081041;28;20192;-73
2023/12/26 03:06:10;;;;;;;2.63;1.67;;;;;;;11.18;100.00;101471.19;2081005;28;20189;-73
2023/12/26 03:07:11;;;;;;;3.93;2.00;;;;;;;11.12;100.00;101476.41;2080869;28;20193;-74
2023/12/26 03:08:12;;;;;;;3.87;2.00;;;;;;;10.92;100.00;101447.72;2080512;28;20641;-74
2023/12/26 03:09:12;;;;;;;3.83;1.77;;;;;;;11.02;100.00;101466.22;2080998;28;20207;-74
2023/12/26 03:10:13;;;;;;;5.13;1.87;;;;;;;10.99;100.00;101475.38;2081021;28;20227;-74
2023/12/26 03:11:13;;;;;;;9.10;1.87;;;;;;;10.95;100.00;101465.50;2080215;28;20224;-73
2023/12/26 03:12:14;;;;;;;4.30;1.57;;;;;;;10.91;100.00;101468.34;2080595;28;20246;-74
2023/12/26 03:13:14;;;;;;;5.83;1.90;;;;;;;10.86;100.00;101470.78;2080201;28;20185;-74
2023/12/26 03:14:15;;;;;;;5.00;1.80;;;;;;;10.75;100.00;101472.88;2088251;28;20188;-74
2023/12/26 03:15:16;;;;;;;4.30;2.00;;;;;;;10.74;100.00;101480.41;2080538;28;20769;-74
2023/12/26 03:16:16;;;;;;;2.77;1.43;;;;;;;10.72;100.00;101474.47;2080196;28;20609;-73
2023/12/26 03:17:17;;;;;;;5.33;2.10;;;;;;;10.18;100.00;101411.72;2079389;28;20243;-74
2023/12/26 03:18:17;;;;;;;3.43;1.70;;;;;;;10.36;100.00;101430.94;2080090;28;20192;-74
2023/12/26 03:19:18;;;;;;;5.93;2.07;;;;;;;9.60;100.00;101326.03;2080450;28;20193;-73
2023/12/26 03:20:19;;;;;;;4.07;2.10;;;;;;;10.21;100.00;101421.19;2080626;28;20645;-73
2023/12/26 03:21:20;;;;;;;4.70;1.93;;;;;;;10.34;100.00;101447.19;2080739;28;20187;-74
2023/12/26 03:22:21;;;;;;;3.70;1.80;;;;;;;9.62;100.00;101340.22;2080178;28;20630;-74
2023/12/26 03:23:21;;;;;;;3.57;1.80;;;;;;;10.52;100.00;101475.50;2080906;28;20423;-74
2023/12/26 03:24:22;;;;;;;4.63;1.87;;;;;;;10.50;100.00;101484.22;2081177;28;20184;-74
2023/12/26 03:25:22;;;;;;;3.20;1.57;;;;;;;10.47;100.00;101476.75;2080233;28;20203;-74
2023/12/26 03:26:23;;;;;;;4.63;2.03;;;;;;;10.46;100.00;101477.94;2080054;28;20185;-73
2023/12/26 03:27:24;;;;;;;5.87;1.73;;;;;;;9.75;100.00;101369.00;2080094;28;20191;-74
2023/12/26 03:28:25;;;;;;;4.20;1.60;;;;;;;10.39;100.00;101463.34;2080765;28;20189;-74
2023/12/26 03:29:26;;;;;;;2.87;1.53;;;;;;;10.25;100.00;101458.75;2080413;28;20177;-73
2023/12/26 03:30:26;;;;;;;4.07;2.07;;;;;;;9.83;100.00;101375.22;2080645;28;20434;-73
2023/12/26 03:31:27;;;;;;;6.00;1.90;;;;;;;10.00;100.00;101410.28;2080502;28;20187;-74
2023/12/26 03:32:27;;;;;;;4.27;1.70;;;;;;;10.16;100.00;101441.03;2081059;28;20188;-74
2023/12/26 03:33:28;;;;;;;4.03;1.60;;;;;;;10.37;100.00;101476.84;2080513;28;20534;-74
2023/12/26 03:34:28;;;;;;;3.93;1.53;;;;;;;9.84;100.00;101385.13;2080981;28;20271;-73
2023/12/26 03:35:29;;;;;;;4.27;1.57;;;;;;;10.35;100.00;101470.94;2080618;28;20246;-74
2023/12/26 03:36:29;;;;;;;3.23;1.77;;;;;;;10.26;100.00;101468.63;2080650;28;20208;-73
2023/12/26 03:37:30;;;;;;;4.93;2.00;;;;;;;10.29;100.00;101470.59;2079707;28;20251;-74
2023/12/26 03:38:30;;;;;;;4.53;1.93;;;;;;;9.81;100.00;101405.31;2080327;28;20235;-74
2023/12/26 03:39:32;;;;;;;3.77;1.73;;;;;;;10.29;100.00;101473.34;2079630;28;20238;-73
2023/12/26 03:40:32;;;;;;;5.50;2.00;;;;;;;10.25;100.00;101474.59;2079895;28;20185;-73
2023/12/26 03:41:35;;;;;;;3.27;1.93;;;;;;;10.03;100.00;101445.47;2080193;28;20435;-74
2023/12/26 03:42:36;;;;;;;4.20;1.77;;;;;;;10.01;100.00;101450.63;2080537;28;20189;-74
2023/12/26 03:43:36;;;;;;;3.90;1.90;;;;;;;10.22;100.00;101478.16;2080460;28;20565;-74
2023/12/26 03:44:37;;;;;;;2.73;1.60;;;;;;;10.09;100.00;101464.03;2080513;28;20185;-74
2023/12/26 03:45:38;;;;;;;6.60;1.83;;;;;;;10.20;100.00;101489.66;2080818;28;20184;-73
2023/12/26 03:46:38;;;;;;;6.37;2.20;;;;;;;10.09;100.00;101466.03;2080484;28;20192;-73
2023/12/26 03:47:38;;;;;;;3.83;1.80;;;;;;;10.17;100.00;101493.25;2079374;28;20732;-73
2023/12/26 03:48:39;;;;;;;4.27;1.70;;;;;;;10.19;100.00;101490.09;2079889;28;20198;-75
2023/12/26 03:49:40;;;;;;;5.33;2.07;;;;;;;9.73;100.00;101410.13;2079714;28;20698;-73
2023/12/26 03:50:40;;;;;;;6.57;1.90;;;;;;;10.17;100.00;101484.94;2079063;28;20695;-73
2023/12/26 03:51:41;;;;;;;4.23;1.77;;;;;;;10.17;100.00;101489.69;2080288;28;20201;-74
2023/12/26 03:52:41;;;;;;;3.40;1.60;;;;;;;10.14;100.00;101493.28;2079688;28;20185;-74
2023/12/26 03:53:42;;;;;;;4.30;2.03;;;;;;;10.08;100.00;101487.38;2079292;28;20189;-74
2023/12/26 03:54:42;;;;;;;3.87;1.50;;;;;;;10.08;100.00;101492.13;2078934;28;20251;-74
2023/12/26 03:55:43;;;;;;;5.17;1.60;;;;;;;9.83;100.00;101447.19;2079514;28;20911;-75
2023/12/26 03:56:43;;;;;;;3.27;1.60;;;;;;;9.65;100.00;101413.34;2079829;28;20722;-74
2023/12/26 03:57:44;;;;;;;3.33;1.33;;;;;;;10.05;100.00;101477.13;2079993;28;20178;-74
2023/12/26 03:58:44;;;;;;;3.73;1.77;;;;;;;10.07;100.00;101490.56;2079911;28;20185;-73
2023/12/26 03:59:45;;;;;;;5.03;1.77;;;;;;;10.08;100.00;101483.81;2079812;28;20181;-74
2023/12/26 04:00:46;;;;;;;4.83;2.07;;;;;;;10.07;100.00;101485.81;2079638;28;20197;-74
2023/12/26 04:01:46;;;;;;;4.70;2.27;;;;;;;10.06;100.00;101489.78;2079990;28;20262;-73
2023/12/26 04:02:47;;;;;;;4.90;2.07;;;;;;;10.06;100.00;101484.25;2078810;28;20857;-74
2023/12/26 04:03:48;;;;;;;5.80;2.17;;;;;;;10.08;100.00;101495.69;2079940;28;20185;-74
2023/12/26 04:04:49;;;;;;;4.33;1.90;;;;;;;10.09;100.00;101497.25;2079500;28;20195;-74
2023/12/26 04:05:50;;;;;;;3.33;1.50;;;;;;;10.06;100.00;101487.03;2079827;28;20238;-74
2023/12/26 04:06:50;;;;;;;5.70;2.10;;;;;;;10.06;100.00;101489.00;2079476;28;20436;-74
2023/12/26 04:07:51;;;;;;;6.70;2.03;;;;;;;10.04;100.00;101494.94;2080081;28;20203;-73
2023/12/26 04:08:52;;;;;;;3.50;1.73;;;;;;;10.03;100.00;101490.56;2079828;28;20571;-73
2023/12/26 04:09:53;;;;;;;5.57;1.70;;;;;;;9.90;100.00;101480.38;2079761;28;20236;-74
2023/12/26 04:10:54;;;;;;;3.40;1.63;;;;;;;9.71;100.00;101442.97;2079360;28;20501;-74
2023/12/26 04:11:54;;;;;;;4.63;1.50;;;;;;;9.99;100.00;101494.56;2079836;28;20264;-74
2023/12/26 04:12:55;;;;;;;4.00;1.60;;;;;;;9.59;100.00;101457.25;2079786;28;20759;-74
2023/12/26 04:13:55;;;;;;;4.27;1.87;;;;;;;9.41;100.00;101422.59;2080196;28;20737;-74
2023/12/26 04:14:56;;;;;;;2.53;1.90;;;;;;;9.74;100.00;101469.03;2079547;28;20193;-74
2023/12/26 04:15:57;;;;;;;3.37;1.57;;;;;;;9.86;100.00;101499.81;2079409;28;20188;-74
2023/12/26 04:16:57;;;;;;;4.60;1.40;;;;;;;9.82;100.00;101492.69;2079220;28;20583;-74
2023/12/26 04:17:58;;;;;;;3.37;1.60;;;;;;;9.42;100.00;101447.09;2079798;28;20638;-74
2023/12/26 04:18:59;;;;;;;3.70;1.80;;;;;;;9.75;100.00;101499.09;2078683;28;20188;-74
2023/12/26 04:20:00;;;;;;;2.70;1.50;;;;;;;9.26;100.00;101429.41;2070851;28;20489;-74
2023/12/26 04:21:00;;;;;;;4.07;1.63;;;;;;;9.72;100.00;101507.38;2079236;28;20703;-74
2023/12/26 04:22:01;;;;;;;3.27;1.63;;;;;;;9.70;100.00;101490.41;2079688;28;20558;-74
2023/12/26 04:23:01;;;;;;;5.17;1.60;;;;;;;9.56;100.00;101480.22;2079967;28;20233;-75
2023/12/26 04:24:02;;;;;;;2.70;1.50;;;;;;;9.63;100.00;101487.69;2079443;28;20268;-74
2023/12/26 04:25:05;;;;;;;3.60;1.70;;;;;;;9.76;100.00;101508.16;2079461;28;20616;-73
2023/12/26 04:26:05;;;;;;;4.87;1.90;;;;;;;9.52;100.00;101467.59;2078921;28;20574;-74
2023/12/26 04:27:07;;;;;;;2.73;1.37;;;;;;;8.82;100.00;101355.38;2079327;28;20550;-74
2023/12/26 04:28:07;;;;;;;4.80;1.73;;;;;;;9.13;100.00;101418.03;2079486;28;20209;-74
2023/12/26 04:29:08;;;;;;;5.90;2.00;;;;;;;9.61;100.00;101499.16;2079798;28;20434;-74
2023/12/26 04:30:09;;;;;;;3.10;1.50;;;;;;;9.24;100.00;101448.41;2078981;28;20320;-73
2023/12/26 04:31:09;;;;;;;4.37;1.70;;;;;;;9.60;100.00;101502.34;2079536;28;20186;-74
2023/12/26 04:32:10;;;;;;;3.60;1.43;;;;;;;9.17;100.00;101429.09;2079943;28;20189;-74
2023/12/26 04:33:12;;;;;;;3.80;1.43;;;;;;;9.58;100.00;101493.66;2079780;28;20181;-75
2023/12/26 04:34:12;;;;;;;3.03;1.33;;;;;;;9.21;100.00;101449.19;2079657;28;20563;-74
2023/12/26 04:35:13;;;;;;;4.63;1.73;;;;;;;8.66;100.00;101368.91;2079366;28;20461;-73
2023/12/26 04:36:13;;;;;;;5.10;1.80;;;;;;;9.55;100.00;101508.28;2079299;28;20228;-74
2023/12/26 04:37:14;;;;;;;5.00;1.43;;;;;;;9.48;100.00;101489.75;2079025;28;20693;-74
2023/12/26 04:38:15;;;;;;;5.93;2.20;;;;;;;9.50;100.00;101512.28;2078574;28;20199;-73
2023/12/26 04:39:16;;;;;;;3.30;1.57;;;;;;;9.50;100.00;101500.41;2079654;28;20618;-74
2023/12/26 04:40:16;;;;;;;3.13;1.73;;;;;;;9.44;100.00;101500.03;2080255;28;20720;-74
2023/12/26 04:41:17;;;;;;;5.13;1.70;;;;;;;9.28;100.00;101474.84;2079975;28;20201;-74
2023/12/26 04:42:17;;;;;;;6.70;2.00;;;;;;;8.53;100.00;101353.16;2079516;28;20268;-73